This is the latest recevied weather packets stored in our database for station/object OK1FCB-1. If no packets are shown the sender has not sent any weather packets the latest 10 day(s).
| Time | Temp. | Humidity | Pressure | Rain* | Wind** | Luminosity | Snow |
|---|---|---|---|---|---|---|---|
| 1788287230 | 15.56° C | 65% | 1024.8 hPa | - | - | - | - |
| 1788282750 | 22.78° C | 48% | 1024.3 hPa | - | - | - | - |
| 1788279173 | 28.33° C | 39% | 1024.3 hPa | - | - | - | - |
| 1788278275 | 28.89° C | 40% | 1024.3 hPa | - | - | - | - |
| 1788276482 | 30° C | 39% | 1024.4 hPa | - | - | - | - |
| 1788275584 | 29.44° C | 40% | 1024.4 hPa | - | - | - | - |
| 1788271987 | 24.44° C | 46% | 1024.6 hPa | - | - | - | - |
| 1788271100 | 28.33° C | 41% | 1024.7 hPa | - | - | - | - |
| 1788269299 | 26.11° C | 46% | 1024.9 hPa | - | - | - | - |
| 1788266603 | 24.44° C | 48% | 1025 hPa | - | - | - | - |
| 1788265707 | 24.44° C | 47% | 1025 hPa | - | - | - | - |
| 1788262109 | 22.22° C | 51% | 1025 hPa | - | - | - | - |
| 1788260315 | 22.22° C | 54% | 1025 hPa | - | - | - | - |
| 1788259416 | 22.22° C | 54% | 1024.9 hPa | - | - | - | - |
| 1788258517 | 21.67° C | 55% | 1025 hPa | - | - | - | - |
| 1788254028 | 22.22° C | 54% | 1024.7 hPa | - | - | - | - |
| 1788251337 | 22.22° C | 54% | 1024.4 hPa | - | - | - | - |
| 1788250437 | 21.67° C | 56% | 1024.2 hPa | - | - | - | - |
| 1788249540 | 22.22° C | 56% | 1024.3 hPa | - | - | - | - |
| 1788248642 | 22.22° C | 55% | 1024.1 hPa | - | - | - | - |
| 1788247742 | 20.56° C | 59% | 1024.1 hPa | - | - | - | - |
| 1788246845 | 20.56° C | 60% | 1024.2 hPa | - | - | - | - |
| 1788240554 | 17.22° C | 74% | 1023.6 hPa | - | - | - | - |
| 1788237858 | 12.78° C | 77% | 1023.2 hPa | - | - | - | - |
| 1788236960 | 12.78° C | 79% | 1023.1 hPa | - | - | - | - |
* Rain since midnight (hover to see other rain measurements)
** Current wind speed in m/s (hover to see current wind gust speed)